メインページ
METAR-TAF:

METAR-TAF

空港 :

Smithers, ブリティッシュコロンビア州, カナダ

緯度: 54-49N, 経度: 127-11W, 海抜: 523m

現時点の気象観測

当レポートは18分前の10:00(UTC)に作成
の風 3kt、からの間で変化する
気温 5°C
湿度 100%
気圧 1025 hPa
視程: 14.5km
晴天

METAR: CYYD 261000Z AUTO 18003KT 090V180 9SM CLR 05/05 A3027 RMK SLP262

時間: 03:18 (10:18 UTC)

予報

当レポートは9時間40分前の00:38(UTC)に作成
予報は26日の 01時(UTC)から 26日の 06時(UTC)まで有効
北/北西の風 10kt
視程: 10km
高度6000ftの雲は散在している
26日の 01時(UTC)から 26日の 05時(UTC)まで一時的に
視程: 10km
高度6000ftの千切れ雲あり
弱いにわか雨
26日の 0500時(UTC)から
北/北西の風 6kt
視程: 10km
高度4000ftの雲は散在している

TAF: CYYD 260038Z 2601/2606 34010KT P6SM SCT060 TEMPO 2601/2605 P6SM -SHRA BKN060 FM260500 34006KT P6SM SCT040 RMK NXT FCST WILL BE ISSUED AT 261345Z

4,000以上の空港の気象観測と天気予報(METAR報とTAF報)

利用可能な観測所は地図上に黄色い丸と赤い丸で示す。

丸の上にカーソルを重ねると観測所名を参照できる。

次にクリックすると気象観測と天気予報を参照できる。

マップの切り替え:黒色「×」印の緑ボタンをクリックして拡大、「-」印の緑ボタンをクリックして縮小、緑色の三角印をクリックして隣りの地図に切り替え


METAR-TAF: